sensor_id;sensor_type;location;lat;lon;timestamp;pressure;altitude;pressure_sealevel;temperature;humidity
53550;BME280;67273;52.914;-0.982;2023-03-03T00:00:10;102625.09;;;18.70;42.15
53550;BME280;67273;52.914;-0.982;2023-03-03T00:02:41;102619.84;;;18.69;42.20
53550;BME280;67273;52.914;-0.982;2023-03-03T00:05:07;102625.50;;;18.67;42.00
53550;BME280;67273;52.914;-0.982;2023-03-03T00:07:33;102623.81;;;18.66;42.08
53550;BME280;67273;52.914;-0.982;2023-03-03T00:09:58;102627.56;;;18.65;42.14
53550;BME280;67273;52.914;-0.982;2023-03-03T00:12:26;102626.91;;;18.63;42.28
53550;BME280;67273;52.914;-0.982;2023-03-03T00:14:53;102632.53;;;18.61;42.02
53550;BME280;67273;52.914;-0.982;2023-03-03T00:17:21;102632.94;;;18.58;42.25
53550;BME280;67273;52.914;-0.982;2023-03-03T00:19:50;102631.25;;;18.57;42.05
53550;BME280;67273;52.914;-0.982;2023-03-03T00:22:29;102634.97;;;18.56;42.26
53550;BME280;67273;52.914;-0.982;2023-03-03T00:24:58;102634.16;;;18.56;42.26
53550;BME280;67273;52.914;-0.982;2023-03-03T00:27:28;102630.78;;;18.54;42.23
53550;BME280;67273;52.914;-0.982;2023-03-03T00:29:55;102632.84;;;18.52;42.09
53550;BME280;67273;52.914;-0.982;2023-03-03T00:32:23;102636.59;;;18.51;42.19
53550;BME280;67273;52.914;-0.982;2023-03-03T00:34:53;102634.06;;;18.49;42.21
53550;BME280;67273;52.914;-0.982;2023-03-03T00:37:30;102631.56;;;18.48;42.29
53550;BME280;67273;52.914;-0.982;2023-03-03T00:40:01;102636.13;;;18.47;42.34
53550;BME280;67273;52.914;-0.982;2023-03-03T00:42:36;102628.16;;;18.46;42.18
53550;BME280;67273;52.914;-0.982;2023-03-03T00:45:17;102623.94;;;18.43;42.29
53550;BME280;67273;52.914;-0.982;2023-03-03T00:47:47;102628.56;;;18.42;42.36
53550;BME280;67273;52.914;-0.982;2023-03-03T00:50:25;102627.91;;;18.40;42.44
53550;BME280;67273;52.914;-0.982;2023-03-03T00:53:01;102626.19;;;18.39;42.34
53550;BME280;67273;52.914;-0.982;2023-03-03T00:55:27;102633.53;;;18.39;42.44
53550;BME280;67273;52.914;-0.982;2023-03-03T00:57:53;102627.63;;;18.35;42.36
53550;BME280;67273;52.914;-0.982;2023-03-03T01:00:23;102634.75;;;18.36;42.39
53550;BME280;67273;52.914;-0.982;2023-03-03T01:02:49;102631.38;;;18.34;42.57
53550;BME280;67273;52.914;-0.982;2023-03-03T01:05:18;102640.56;;;18.33;42.53
53550;BME280;67273;52.914;-0.982;2023-03-03T01:07:44;102626.28;;;18.31;42.50
53550;BME280;67273;52.914;-0.982;2023-03-03T01:10:10;102624.63;;;18.30;42.41
53550;BME280;67273;52.914;-0.982;2023-03-03T01:12:37;102634.63;;;18.30;42.31
53550;BME280;67273;52.914;-0.982;2023-03-03T01:15:04;102625.81;;;18.28;42.43
53550;BME280;67273;52.914;-0.982;2023-03-03T01:17:30;102635.88;;;18.27;42.34
53550;BME280;67273;52.914;-0.982;2023-03-03T01:19:55;102636.06;;;18.26;42.64
53550;BME280;67273;52.914;-0.982;2023-03-03T01:22:23;102630.81;;;18.24;42.62
53550;BME280;67273;52.914;-0.982;2023-03-03T01:24:49;102634.56;;;18.23;42.58
53550;BME280;67273;52.914;-0.982;2023-03-03T01:27:14;102629.31;;;18.21;42.58
53550;BME280;67273;52.914;-0.982;2023-03-03T01:29:40;102632.22;;;18.20;42.48
53550;BME280;67273;52.914;-0.982;2023-03-03T01:32:06;102638.50;;;18.20;42.54
53550;BME280;67273;52.914;-0.982;2023-03-03T01:34:32;102640.38;;;18.20;42.61
53550;BME280;67273;52.914;-0.982;2023-03-03T01:36:58;102639.72;;;18.18;42.41
53550;BME280;67273;52.914;-0.982;2023-03-03T01:39:27;102638.03;;;18.17;42.53
53550;BME280;67273;52.914;-0.982;2023-03-03T01:41:53;102636.34;;;18.16;42.46
53550;BME280;67273;52.914;-0.982;2023-03-03T01:44:18;102641.13;;;18.14;42.63
53550;BME280;67273;52.914;-0.982;2023-03-03T01:46:48;102636.72;;;18.13;42.59
53550;BME280;67273;52.914;-0.982;2023-03-03T01:49:19;102639.44;;;18.13;42.44
53550;BME280;67273;52.914;-0.982;2023-03-03T01:51:50;102633.34;;;18.11;42.58
53550;BME280;67273;52.914;-0.982;2023-03-03T01:54:20;102641.50;;;18.11;42.57
53550;BME280;67273;52.914;-0.982;2023-03-03T01:56:50;102643.59;;;18.09;42.51
53550;BME280;67273;52.914;-0.982;2023-03-03T01:59:20;102638.50;;;18.05;42.56
53550;BME280;67273;52.914;-0.982;2023-03-03T02:01:48;102651.94;;;18.07;42.67
53550;BME280;67273;52.914;-0.982;2023-03-03T02:04:14;102638.50;;;18.05;42.62
53550;BME280;67273;52.914;-0.982;2023-03-03T02:06:43;102638.50;;;18.05;42.60
53550;BME280;67273;52.914;-0.982;2023-03-03T02:09:14;102639.72;;;18.03;42.44
53550;BME280;67273;52.914;-0.982;2023-03-03T02:11:43;102644.31;;;18.02;42.62
53550;BME280;67273;52.914;-0.982;2023-03-03T02:14:12;102636.16;;;18.02;42.68
53550;BME280;67273;52.914;-0.982;2023-03-03T02:16:42;102631.94;;;18.00;42.55
53550;BME280;67273;52.914;-0.982;2023-03-03T02:19:20;102639.25;;;17.99;42.68
53550;BME280;67273;52.914;-0.982;2023-03-03T02:21:50;102640.28;;;17.98;42.66
53550;BME280;67273;52.914;-0.982;2023-03-03T02:24:22;102634.00;;;17.98;42.64
53550;BME280;67273;52.914;-0.982;2023-03-03T02:26:51;102635.03;;;17.97;42.57
53550;BME280;67273;52.914;-0.982;2023-03-03T02:29:19;102638.78;;;17.96;42.71
53550;BME280;67273;52.914;-0.982;2023-03-03T02:31:46;102632.50;;;17.95;42.65
53550;BME280;67273;52.914;-0.982;2023-03-03T02:34:14;102637.94;;;17.95;42.65
53550;BME280;67273;52.914;-0.982;2023-03-03T02:36:44;102633.72;;;17.93;42.50
53550;BME280;67273;52.914;-0.982;2023-03-03T02:39:15;102642.06;;;17.91;42.62
53550;BME280;67273;52.914;-0.982;2023-03-03T02:41:52;102635.75;;;17.91;42.70
53550;BME280;67273;52.914;-0.982;2023-03-03T02:44:29;102633.25;;;17.89;42.59
53550;BME280;67273;52.914;-0.982;2023-03-03T02:46:59;102634.28;;;17.88;42.57
53550;BME280;67273;52.914;-0.982;2023-03-03T02:49:29;102631.56;;;17.88;42.62
53550;BME280;67273;52.914;-0.982;2023-03-03T02:52:01;102632.56;;;17.87;42.60
53550;BME280;67273;52.914;-0.982;2023-03-03T02:54:31;102629.84;;;17.87;42.65
53550;BME280;67273;52.914;-0.982;2023-03-03T02:57:04;102626.44;;;17.85;42.54
53550;BME280;67273;52.914;-0.982;2023-03-03T02:59:33;102626.44;;;17.85;42.72
53550;BME280;67273;52.914;-0.982;2023-03-03T03:02:09;102623.91;;;17.83;42.54
53550;BME280;67273;52.914;-0.982;2023-03-03T03:04:37;102622.22;;;17.82;42.55
53550;BME280;67273;52.914;-0.982;2023-03-03T03:07:06;102624.13;;;17.82;42.72
53550;BME280;67273;52.914;-0.982;2023-03-03T03:09:40;102624.13;;;17.82;42.75
53550;BME280;67273;52.914;-0.982;2023-03-03T03:12:17;102628.88;;;17.80;42.56
53550;BME280;67273;52.914;-0.982;2023-03-03T03:14:50;102634.31;;;17.80;42.85
53550;BME280;67273;52.914;-0.982;2023-03-03T03:17:19;102629.91;;;17.79;42.74
53550;BME280;67273;52.914;-0.982;2023-03-03T03:19:47;102624.84;;;17.76;42.76
53550;BME280;67273;52.914;-0.982;2023-03-03T03:22:15;102629.25;;;17.77;42.76
53550;BME280;67273;52.914;-0.982;2023-03-03T03:24:43;102622.97;;;17.76;42.79
53550;BME280;67273;52.914;-0.982;2023-03-03T03:27:13;102629.44;;;17.75;42.75
53550;BME280;67273;52.914;-0.982;2023-03-03T03:29:40;102625.03;;;17.74;42.82
53550;BME280;67273;52.914;-0.982;2023-03-03T03:32:07;102623.34;;;17.73;42.57
53550;BME280;67273;52.914;-0.982;2023-03-03T03:34:36;102625.22;;;17.73;42.72
53550;BME280;67273;52.914;-0.982;2023-03-03T03:37:06;102627.94;;;17.73;42.97
53550;BME280;67273;52.914;-0.982;2023-03-03T03:39:36;102625.38;;;17.71;42.71
53550;BME280;67273;52.914;-0.982;2023-03-03T03:42:05;102622.88;;;17.70;42.77
53550;BME280;67273;52.914;-0.982;2023-03-03T03:44:36;102626.63;;;17.68;42.79
53550;BME280;67273;52.914;-0.982;2023-03-03T03:47:05;102626.63;;;17.68;42.79
53550;BME280;67273;52.914;-0.982;2023-03-03T03:49:35;102624.91;;;17.67;42.77
53550;BME280;67273;52.914;-0.982;2023-03-03T03:52:04;102624.06;;;17.67;42.86
53550;BME280;67273;52.914;-0.982;2023-03-03T03:54:34;102624.06;;;17.67;42.62
53550;BME280;67273;52.914;-0.982;2023-03-03T03:57:01;102618.81;;;17.65;42.69
53550;BME280;67273;52.914;-0.982;2023-03-03T03:59:31;102617.16;;;17.64;42.68
53550;BME280;67273;52.914;-0.982;2023-03-03T04:02:01;102629.69;;;17.65;42.78
53550;BME280;67273;52.914;-0.982;2023-03-03T04:04:29;102619.88;;;17.64;42.60
53550;BME280;67273;52.914;-0.982;2023-03-03T04:06:55;102622.59;;;17.64;42.49
53550;BME280;67273;52.914;-0.982;2023-03-03T04:09:20;102611.91;;;17.63;42.69
53550;BME280;67273;52.914;-0.982;2023-03-03T04:11:47;102625.66;;;17.61;42.76
53550;BME280;67273;52.914;-0.982;2023-03-03T04:14:13;102614.78;;;17.61;42.63
53550;BME280;67273;52.914;-0.982;2023-03-03T04:16:39;102613.97;;;17.61;42.77
53550;BME280;67273;52.914;-0.982;2023-03-03T04:19:06;102621.25;;;17.60;42.65
53550;BME280;67273;52.914;-0.982;2023-03-03T04:21:34;102622.28;;;17.59;42.53
53550;BME280;67273;52.914;-0.982;2023-03-03T04:24:01;102620.59;;;17.58;42.52
53550;BME280;67273;52.914;-0.982;2023-03-03T04:26:28;102620.59;;;17.58;42.77
53550;BME280;67273;52.914;-0.982;2023-03-03T04:28:55;102618.91;;;17.57;42.53
53550;BME280;67273;52.914;-0.982;2023-03-03T04:31:22;102619.75;;;17.58;42.59
53550;BME280;67273;52.914;-0.982;2023-03-03T04:33:48;102618.91;;;17.57;42.68
53550;BME280;67273;52.914;-0.982;2023-03-03T04:36:15;102623.50;;;17.57;42.64
53550;BME280;67273;52.914;-0.982;2023-03-03T04:38:41;102623.69;;;17.55;42.67
53550;BME280;67273;52.914;-0.982;2023-03-03T04:41:09;102620.13;;;17.55;42.48
53550;BME280;67273;52.914;-0.982;2023-03-03T04:43:37;102617.41;;;17.55;42.48
53550;BME280;67273;52.914;-0.982;2023-03-03T04:46:04;102615.72;;;17.54;42.32
53550;BME280;67273;52.914;-0.982;2023-03-03T04:48:30;102614.84;;;17.53;42.52
53550;BME280;67273;52.914;-0.982;2023-03-03T04:50:57;102613.19;;;17.52;42.54
53550;BME280;67273;52.914;-0.982;2023-03-03T04:53:29;102615.91;;;17.52;42.74
53550;BME280;67273;52.914;-0.982;2023-03-03T04:56:02;102617.97;;;17.50;42.61
53550;BME280;67273;52.914;-0.982;2023-03-03T04:58:30;102628.84;;;17.50;42.61
53550;BME280;67273;52.914;-0.982;2023-03-03T05:00:57;102624.41;;;17.49;42.63
53550;BME280;67273;52.914;-0.982;2023-03-03T05:03:29;102625.25;;;17.49;42.63
53550;BME280;67273;52.914;-0.982;2023-03-03T05:05:56;102624.59;;;17.47;42.42
53550;BME280;67273;52.914;-0.982;2023-03-03T05:08:23;102625.44;;;17.48;42.44
53550;BME280;67273;52.914;-0.982;2023-03-03T05:10:54;102624.59;;;17.47;42.65
53550;BME280;67273;52.914;-0.982;2023-03-03T05:13:21;102633.78;;;17.46;42.58
53550;BME280;67273;52.914;-0.982;2023-03-03T05:15:53;102627.50;;;17.46;42.55
53550;BME280;67273;52.914;-0.982;2023-03-03T05:18:23;102629.38;;;17.45;42.53
53550;BME280;67273;52.914;-0.982;2023-03-03T05:20:52;102624.94;;;17.44;42.38
53550;BME280;67273;52.914;-0.982;2023-03-03T05:23:19;102634.16;;;17.43;42.65
53550;BME280;67273;52.914;-0.982;2023-03-03T05:25:46;102628.72;;;17.43;42.53
53550;BME280;67273;52.914;-0.982;2023-03-03T05:28:14;102629.72;;;17.42;42.56
53550;BME280;67273;52.914;-0.982;2023-03-03T05:30:39;102631.63;;;17.42;42.66
53550;BME280;67273;52.914;-0.982;2023-03-03T05:33:06;102629.91;;;17.41;42.66
53550;BME280;67273;52.914;-0.982;2023-03-03T05:35:32;102624.47;;;17.41;42.49
53550;BME280;67273;52.914;-0.982;2023-03-03T05:38:00;102629.91;;;17.41;42.37
53550;BME280;67273;52.914;-0.982;2023-03-03T05:40:29;102628.25;;;17.40;42.52
53550;BME280;67273;52.914;-0.982;2023-03-03T05:42:58;102626.53;;;17.39;42.32
53550;BME280;67273;52.914;-0.982;2023-03-03T05:45:26;102632.84;;;17.39;42.38
53550;BME280;67273;52.914;-0.982;2023-03-03T05:47:52;102630.28;;;17.38;42.64
53550;BME280;67273;52.914;-0.982;2023-03-03T05:50:19;102633.00;;;17.38;42.56
53550;BME280;67273;52.914;-0.982;2023-03-03T05:52:48;102634.88;;;17.37;42.39
53550;BME280;67273;52.914;-0.982;2023-03-03T05:55:15;102630.47;;;17.36;42.33
53550;BME280;67273;52.914;-0.982;2023-03-03T05:57:40;102630.66;;;17.35;42.39
53550;BME280;67273;52.914;-0.982;2023-03-03T06:00:09;102635.06;;;17.36;42.45
53550;BME280;67273;52.914;-0.982;2023-03-03T06:02:41;102639.66;;;17.35;42.61
53550;BME280;67273;52.914;-0.982;2023-03-03T06:05:09;102626.22;;;17.34;42.28
53550;BME280;67273;52.914;-0.982;2023-03-03T06:07:37;102627.28;;;17.33;42.47
53550;BME280;67273;52.914;-0.982;2023-03-03T06:10:03;102631.88;;;17.32;42.25
53550;BME280;67273;52.914;-0.982;2023-03-03T06:12:33;102630.19;;;17.31;42.56
53550;BME280;67273;52.914;-0.982;2023-03-03T06:15:00;102629.34;;;17.31;42.41
53550;BME280;67273;52.914;-0.982;2023-03-03T06:17:28;102627.63;;;17.29;42.43
53550;BME280;67273;52.914;-0.982;2023-03-03T06:19:58;102637.66;;;17.29;42.36
53550;BME280;67273;52.914;-0.982;2023-03-03T06:22:29;102633.06;;;17.29;42.49
53550;BME280;67273;52.914;-0.982;2023-03-03T06:24:56;102634.78;;;17.31;42.16
53550;BME280;67273;52.914;-0.982;2023-03-03T06:27:22;102637.31;;;17.32;42.17
53550;BME280;67273;52.914;-0.982;2023-03-03T06:29:48;102642.19;;;17.37;42.13
53550;BME280;67273;52.914;-0.982;2023-03-03T06:32:17;102641.47;;;17.43;42.06
53550;BME280;67273;52.914;-0.982;2023-03-03T06:34:45;102643.78;;;17.46;42.03
53550;BME280;67273;52.914;-0.982;2023-03-03T06:37:12;102654.13;;;17.51;42.13
53550;BME280;67273;52.914;-0.982;2023-03-03T06:39:38;102651.06;;;17.54;42.11
53550;BME280;67273;52.914;-0.982;2023-03-03T06:42:03;102652.38;;;17.58;41.94
53550;BME280;67273;52.914;-0.982;2023-03-03T06:44:29;102647.41;;;17.61;41.90
53550;BME280;67273;52.914;-0.982;2023-03-03T06:46:55;102653.16;;;17.66;41.96
53550;BME280;67273;52.914;-0.982;2023-03-03T06:49:22;102652.38;;;17.73;41.77
53550;BME280;67273;52.914;-0.982;2023-03-03T06:51:50;102655.41;;;17.78;41.88
53550;BME280;67273;52.914;-0.982;2023-03-03T06:54:19;102655.69;;;17.83;41.42
53550;BME280;67273;52.914;-0.982;2023-03-03T06:56:48;102655.00;;;17.89;41.32
53550;BME280;67273;52.914;-0.982;2023-03-03T06:59:21;102651.53;;;17.95;41.15
53550;BME280;67273;52.914;-0.982;2023-03-03T07:01:51;102658.28;;;17.99;41.19
53550;BME280;67273;52.914;-0.982;2023-03-03T07:04:24;102661.28;;;18.04;41.17
53550;BME280;67273;52.914;-0.982;2023-03-03T07:06:55;102665.53;;;18.07;41.22
53550;BME280;67273;52.914;-0.982;2023-03-03T07:09:24;102668.72;;;18.11;41.06
53550;BME280;67273;52.914;-0.982;2023-03-03T07:11:51;102665.81;;;18.12;41.15
53550;BME280;67273;52.914;-0.982;2023-03-03T07:14:18;102664.13;;;18.11;41.05
53550;BME280;67273;52.914;-0.982;2023-03-03T07:16:45;102672.09;;;18.13;41.04
53550;BME280;67273;52.914;-0.982;2023-03-03T07:19:19;102675.47;;;18.15;40.94
53550;BME280;67273;52.914;-0.982;2023-03-03T07:21:46;102671.03;;;18.14;40.88
53550;BME280;67273;52.914;-0.982;2023-03-03T07:24:26;102675.47;;;18.15;40.94
53550;BME280;67273;52.914;-0.982;2023-03-03T07:26:59;102680.06;;;18.14;41.11
53550;BME280;67273;52.914;-0.982;2023-03-03T07:29:36;102684.47;;;18.15;41.02
53550;BME280;67273;52.914;-0.982;2023-03-03T07:32:25;102683.63;;;18.15;40.96
53550;BME280;67273;52.914;-0.982;2023-03-03T07:34:54;102691.78;;;18.15;41.06
53550;BME280;67273;52.914;-0.982;2023-03-03T07:37:28;102692.63;;;18.15;40.85
53550;BME280;67273;52.914;-0.982;2023-03-03T07:39:57;102693.50;;;18.16;40.84
53550;BME280;67273;52.914;-0.982;2023-03-03T07:42:26;102705.22;;;18.16;40.91
53550;BME280;67273;52.914;-0.982;2023-03-03T07:45:01;102697.88;;;18.17;40.79
53550;BME280;67273;52.914;-0.982;2023-03-03T07:47:30;102702.47;;;18.16;40.60
53550;BME280;67273;52.914;-0.982;2023-03-03T07:50:07;102702.47;;;18.16;40.78
53550;BME280;67273;52.914;-0.982;2023-03-03T07:52:39;102705.38;;;18.15;40.66
53550;BME280;67273;52.914;-0.982;2023-03-03T07:55:24;102713.56;;;18.15;40.62
53550;BME280;67273;52.914;-0.982;2023-03-03T07:57:54;102702.66;;;18.15;40.49
53550;BME280;67273;52.914;-0.982;2023-03-03T08:03:35;102703.69;;;18.14;40.50
53550;BME280;67273;52.914;-0.982;2023-03-03T08:06:08;102712.72;;;18.14;40.37
53550;BME280;67273;52.914;-0.982;2023-03-03T08:08:46;102715.63;;;18.13;40.60
53550;BME280;67273;52.914;-0.982;2023-03-03T08:11:14;102713.91;;;18.12;40.32
53550;BME280;67273;52.914;-0.982;2023-03-03T08:13:41;102714.78;;;18.12;40.42
53550;BME280;67273;52.914;-0.982;2023-03-03T08:16:24;102717.69;;;18.11;40.41
53550;BME280;67273;52.914;-0.982;2023-03-03T08:18:57;102727.91;;;18.09;41.02
53550;BME280;67273;52.914;-0.982;2023-03-03T08:21:26;102734.91;;;18.03;42.52
53550;BME280;67273;52.914;-0.982;2023-03-03T08:23:52;102721.13;;;18.04;42.54
53550;BME280;67273;52.914;-0.982;2023-03-03T08:26:21;102726.78;;;18.18;43.17
53550;BME280;67273;52.914;-0.982;2023-03-03T08:28:48;102723.31;;;18.24;43.11
53550;BME280;67273;52.914;-0.982;2023-03-03T08:31:14;102719.69;;;18.32;43.94
53550;BME280;67273;52.914;-0.982;2023-03-03T08:33:42;102716.38;;;18.36;44.21
53550;BME280;67273;52.914;-0.982;2023-03-03T08:36:09;102722.09;;;18.41;44.13
53550;BME280;67273;52.914;-0.982;2023-03-03T08:38:35;102722.75;;;18.43;44.19
53550;BME280;67273;52.914;-0.982;2023-03-03T08:41:02;102725.22;;;18.53;44.01
53550;BME280;67273;52.914;-0.982;2023-03-03T08:43:30;102724.34;;;18.53;44.02
53550;BME280;67273;52.914;-0.982;2023-03-03T08:45:57;102735.06;;;18.54;44.09
53550;BME280;67273;52.914;-0.982;2023-03-03T08:48:24;102734.03;;;18.55;43.92
53550;BME280;67273;52.914;-0.982;2023-03-03T08:50:50;102727.34;;;18.58;43.85
53550;BME280;67273;52.914;-0.982;2023-03-03T08:53:17;102723.78;;;18.57;43.80
53550;BME280;67273;52.914;-0.982;2023-03-03T08:55:44;102730.53;;;18.61;43.74
53550;BME280;67273;52.914;-0.982;2023-03-03T08:58:10;102733.44;;;18.60;43.85
53550;BME280;67273;52.914;-0.982;2023-03-03T09:00:38;102728.59;;;18.55;43.65
53550;BME280;67273;52.914;-0.982;2023-03-03T09:03:04;102731.50;;;18.54;43.51
53550;BME280;67273;52.914;-0.982;2023-03-03T09:05:32;102738.81;;;18.53;43.31
53550;BME280;67273;52.914;-0.982;2023-03-03T09:07:59;102736.09;;;18.53;43.28
53550;BME280;67273;52.914;-0.982;2023-03-03T09:10:26;102729.13;;;18.51;43.20
53550;BME280;67273;52.914;-0.982;2023-03-03T09:12:54;102735.72;;;18.56;43.01
53550;BME280;67273;52.914;-0.982;2023-03-03T09:15:25;102744.56;;;18.58;43.50
53550;BME280;67273;52.914;-0.982;2023-03-03T09:17:57;102746.03;;;18.61;43.66
53550;BME280;67273;52.914;-0.982;2023-03-03T09:20:31;102748.22;;;18.66;43.82
53550;BME280;67273;52.914;-0.982;2023-03-03T09:22:58;102743.88;;;18.56;43.98
53550;BME280;67273;52.914;-0.982;2023-03-03T09:25:30;102742.31;;;18.62;44.09
53550;BME280;67273;52.914;-0.982;2023-03-03T09:27:58;102750.53;;;18.69;44.49
53550;BME280;67273;52.914;-0.982;2023-03-03T09:30:44;102744.91;;;18.70;44.45
53550;BME280;67273;52.914;-0.982;2023-03-03T09:33:23;102748.28;;;18.72;44.32
53550;BME280;67273;52.914;-0.982;2023-03-03T09:35:51;102744.91;;;18.70;44.04
53550;BME280;67273;52.914;-0.982;2023-03-03T09:38:26;102744.91;;;18.70;43.79
53550;BME280;67273;52.914;-0.982;2023-03-03T09:41:10;102752.88;;;18.72;43.74
53550;BME280;67273;52.914;-0.982;2023-03-03T09:43:46;102753.72;;;18.72;43.63
53550;BME280;67273;52.914;-0.982;2023-03-03T09:46:19;102751.88;;;18.73;43.56
53550;BME280;67273;52.914;-0.982;2023-03-03T09:48:57;102751.69;;;18.74;43.47
53550;BME280;67273;52.914;-0.982;2023-03-03T09:51:37;102741.81;;;18.73;43.60
53550;BME280;67273;52.914;-0.982;2023-03-03T09:54:21;102741.44;;;18.76;43.24
53550;BME280;67273;52.914;-0.982;2023-03-03T09:56:54;102737.66;;;18.77;43.36
53550;BME280;67273;52.914;-0.982;2023-03-03T09:59:38;102740.22;;;18.79;43.41
53550;BME280;67273;52.914;-0.982;2023-03-03T10:02:23;102744.63;;;18.65;43.89
53550;BME280;67273;52.914;-0.982;2023-03-03T10:04:58;102741.16;;;18.71;43.96
53550;BME280;67273;52.914;-0.982;2023-03-03T10:07:36;102750.25;;;18.78;43.77
53550;BME280;67273;52.914;-0.982;2023-03-03T10:10:16;102754.31;;;18.83;43.67
53550;BME280;67273;52.914;-0.982;2023-03-03T10:12:56;102746.81;;;18.85;43.44
53550;BME280;67273;52.914;-0.982;2023-03-03T10:15:31;102755.66;;;18.87;43.52
53550;BME280;67273;52.914;-0.982;2023-03-03T10:18:01;102759.03;;;18.89;43.42
53550;BME280;67273;52.914;-0.982;2023-03-03T10:20:44;102753.59;;;18.89;43.60
53550;BME280;67273;52.914;-0.982;2023-03-03T10:23:18;102760.69;;;18.90;43.34
53550;BME280;67273;52.914;-0.982;2023-03-03T10:25:51;102761.34;;;18.92;43.30
53550;BME280;67273;52.914;-0.982;2023-03-03T10:31:16;102765.78;;;18.93;43.32
53550;BME280;67273;52.914;-0.982;2023-03-03T10:33:53;102765.78;;;18.93;43.20
53550;BME280;67273;52.914;-0.982;2023-03-03T10:36:46;102772.91;;;18.94;43.29
53550;BME280;67273;52.914;-0.982;2023-03-03T10:39:28;102771.88;;;18.95;43.43
53550;BME280;67273;52.914;-0.982;2023-03-03T10:42:04;102771.88;;;18.95;43.25
53550;BME280;67273;52.914;-0.982;2023-03-03T10:44:44;102770.84;;;18.96;43.50
53550;BME280;67273;52.914;-0.982;2023-03-03T10:47:28;102775.25;;;18.97;43.43
53550;BME280;67273;52.914;-0.982;2023-03-03T10:50:09;102773.38;;;18.97;43.44
53550;BME280;67273;52.914;-0.982;2023-03-03T10:52:45;102783.03;;;19.00;43.14
53550;BME280;67273;52.914;-0.982;2023-03-03T10:55:30;102772.16;;;19.00;43.11
53550;BME280;67273;52.914;-0.982;2023-03-03T10:58:08;102771.78;;;19.03;43.29
53550;BME280;67273;52.914;-0.982;2023-03-03T11:00:41;102774.31;;;19.05;43.05
53550;BME280;67273;52.914;-0.982;2023-03-03T11:03:29;102771.09;;;18.56;44.23
53550;BME280;67273;52.914;-0.982;2023-03-03T11:06:01;102765.94;;;18.76;44.44
53550;BME280;67273;52.914;-0.982;2023-03-03T11:08:35;102774.13;;;18.91;44.06
53550;BME280;67273;52.914;-0.982;2023-03-03T11:11:10;102771.13;;;19.01;44.07
53550;BME280;67273;52.914;-0.982;2023-03-03T11:13:45;102765.28;;;19.04;44.06
53550;BME280;67273;52.914;-0.982;2023-03-03T11:16:30;102772.06;;;19.08;44.20
53550;BME280;67273;52.914;-0.982;2023-03-03T11:19:07;102760.56;;;19.13;44.34
53550;BME280;67273;52.914;-0.982;2023-03-03T11:21:41;102767.81;;;19.21;44.21
53550;BME280;67273;52.914;-0.982;2023-03-03T11:24:20;102769.81;;;19.33;43.90
53550;BME280;67273;52.914;-0.982;2023-03-03T11:27:04;102775.13;;;19.42;43.79
53550;BME280;67273;52.914;-0.982;2023-03-03T11:29:44;102779.47;;;19.51;43.48
53550;BME280;67273;52.914;-0.982;2023-03-03T11:32:20;102779.13;;;19.61;43.23
53550;BME280;67273;52.914;-0.982;2023-03-03T11:34:57;102786.31;;;19.68;43.08
53550;BME280;67273;52.914;-0.982;2023-03-03T11:37:35;102788.13;;;19.76;42.83
53550;BME280;67273;52.914;-0.982;2023-03-03T11:40:11;102786.97;;;19.85;42.39
53550;BME280;67273;52.914;-0.982;2023-03-03T11:42:46;102789.94;;;19.90;42.26
53550;BME280;67273;52.914;-0.982;2023-03-03T11:45:18;102789.81;;;19.99;42.18
53550;BME280;67273;52.914;-0.982;2023-03-03T11:47:49;102781.72;;;20.12;41.70
53550;BME280;67273;52.914;-0.982;2023-03-03T11:50:19;102787.56;;;19.66;42.08
53550;BME280;67273;52.914;-0.982;2023-03-03T11:52:50;102789.59;;;19.21;43.08
53550;BME280;67273;52.914;-0.982;2023-03-03T11:55:24;102791.28;;;19.58;43.59
53550;BME280;67273;52.914;-0.982;2023-03-03T11:57:55;102792.13;;;20.02;41.95
53550;BME280;67273;52.914;-0.982;2023-03-03T12:00:26;102785.22;;;20.27;41.68
53550;BME280;67273;52.914;-0.982;2023-03-03T12:03:20;102798.94;;;20.12;42.17
53550;BME280;67273;52.914;-0.982;2023-03-03T12:05:57;102786.94;;;20.35;41.73
53550;BME280;67273;52.914;-0.982;2023-03-03T12:08:38;102786.81;;;20.50;41.21
53550;BME280;67273;52.914;-0.982;2023-03-03T12:11:12;102782.06;;;20.59;41.25
53550;BME280;67273;52.914;-0.982;2023-03-03T12:13:52;102777.72;;;20.64;41.14
53550;BME280;67273;52.914;-0.982;2023-03-03T12:16:27;102772.47;;;20.69;41.00
53550;BME280;67273;52.914;-0.982;2023-03-03T12:19:12;102782.06;;;20.59;40.86
53550;BME280;67273;52.914;-0.982;2023-03-03T12:21:50;102785.66;;;20.03;42.24
53550;BME280;67273;52.914;-0.982;2023-03-03T12:24:33;102781.03;;;20.31;41.33
53550;BME280;67273;52.914;-0.982;2023-03-03T12:27:14;102777.75;;;20.43;41.19
53550;BME280;67273;52.914;-0.982;2023-03-03T12:29:53;102781.16;;;20.45;40.84
53550;BME280;67273;52.914;-0.982;2023-03-03T12:32:31;102781.16;;;20.45;40.71
53550;BME280;67273;52.914;-0.982;2023-03-03T12:35:05;102775.47;;;20.46;40.70
53550;BME280;67273;52.914;-0.982;2023-03-03T12:37:46;102774.63;;;20.46;40.51
53550;BME280;67273;52.914;-0.982;2023-03-03T12:40:16;102775.69;;;20.45;40.23
53550;BME280;67273;52.914;-0.982;2023-03-03T12:43:02;102775.69;;;20.45;40.39
53550;BME280;67273;52.914;-0.982;2023-03-03T12:45:38;102773.78;;;20.45;40.15
53550;BME280;67273;52.914;-0.982;2023-03-03T12:48:14;102767.25;;;20.40;40.19
53550;BME280;67273;52.914;-0.982;2023-03-03T12:50:48;102771.00;;;20.39;40.20
53550;BME280;67273;52.914;-0.982;2023-03-03T12:53:28;102769.72;;;20.35;40.20
53550;BME280;67273;52.914;-0.982;2023-03-03T12:55:57;102766.34;;;20.32;40.01
53550;BME280;67273;52.914;-0.982;2023-03-03T12:58:37;102769.34;;;19.88;41.31
53550;BME280;67273;52.914;-0.982;2023-03-03T13:01:15;102762.50;;;19.55;42.12
53550;BME280;67273;52.914;-0.982;2023-03-03T13:03:51;102761.69;;;19.77;41.99
53550;BME280;67273;52.914;-0.982;2023-03-03T13:06:25;102759.13;;;20.18;41.64